sensor_id;sensor_type;location;lat;lon;timestamp;temperature;humidity
5086;DHT22;4715;51.660;7.082;2023-05-07T00:01:14;15.80;99.90
5086;DHT22;4715;51.660;7.082;2023-05-07T00:03:37;15.80;99.90
5086;DHT22;4715;51.660;7.082;2023-05-07T00:06:00;15.80;99.90
5086;DHT22;4715;51.660;7.082;2023-05-07T00:08:24;15.80;99.90
5086;DHT22;4715;51.660;7.082;2023-05-07T00:10:47;15.80;99.90
5086;DHT22;4715;51.660;7.082;2023-05-07T00:13:09;15.80;99.90
5086;DHT22;4715;51.660;7.082;2023-05-07T00:15:32;15.80;99.90
5086;DHT22;4715;51.660;7.082;2023-05-07T00:17:56;15.80;99.90
5086;DHT22;4715;51.660;7.082;2023-05-07T00:20:21;15.70;99.90
5086;DHT22;4715;51.660;7.082;2023-05-07T00:22:43;15.80;99.90
5086;DHT22;4715;51.660;7.082;2023-05-07T00:25:06;15.70;99.90
5086;DHT22;4715;51.660;7.082;2023-05-07T00:27:29;15.70;99.90
5086;DHT22;4715;51.660;7.082;2023-05-07T00:29:51;15.70;99.90
5086;DHT22;4715;51.660;7.082;2023-05-07T00:32:13;15.70;99.90
5086;DHT22;4715;51.660;7.082;2023-05-07T00:34:35;15.70;99.90
5086;DHT22;4715;51.660;7.082;2023-05-07T00:36:59;15.80;99.90
5086;DHT22;4715;51.660;7.082;2023-05-07T00:39:22;15.80;99.90
5086;DHT22;4715;51.660;7.082;2023-05-07T00:41:46;15.80;99.90
5086;DHT22;4715;51.660;7.082;2023-05-07T00:44:08;15.80;99.90
5086;DHT22;4715;51.660;7.082;2023-05-07T00:46:31;15.80;99.90
5086;DHT22;4715;51.660;7.082;2023-05-07T00:48:54;15.70;99.90
5086;DHT22;4715;51.660;7.082;2023-05-07T00:51:17;15.70;99.90
5086;DHT22;4715;51.660;7.082;2023-05-07T00:53:44;15.60;99.90
5086;DHT22;4715;51.660;7.082;2023-05-07T00:56:06;15.60;99.90
5086;DHT22;4715;51.660;7.082;2023-05-07T00:58:29;15.50;99.90
5086;DHT22;4715;51.660;7.082;2023-05-07T01:00:51;15.50;99.90
5086;DHT22;4715;51.660;7.082;2023-05-07T01:03:14;15.50;99.90
5086;DHT22;4715;51.660;7.082;2023-05-07T01:05:38;15.40;99.90
5086;DHT22;4715;51.660;7.082;2023-05-07T01:08:01;15.40;99.90
5086;DHT22;4715;51.660;7.082;2023-05-07T01:10:28;15.30;99.90
5086;DHT22;4715;51.660;7.082;2023-05-07T01:12:51;15.30;99.90
5086;DHT22;4715;51.660;7.082;2023-05-07T01:15:15;15.30;99.90
5086;DHT22;4715;51.660;7.082;2023-05-07T01:17:40;15.30;99.90
5086;DHT22;4715;51.660;7.082;2023-05-07T01:20:05;15.30;99.90
5086;DHT22;4715;51.660;7.082;2023-05-07T01:22:32;15.30;99.90
5086;DHT22;4715;51.660;7.082;2023-05-07T01:24:58;15.30;99.90
5086;DHT22;4715;51.660;7.082;2023-05-07T01:27:22;15.30;99.90
5086;DHT22;4715;51.660;7.082;2023-05-07T01:29:44;15.40;99.90
5086;DHT22;4715;51.660;7.082;2023-05-07T01:32:08;15.40;99.90
5086;DHT22;4715;51.660;7.082;2023-05-07T01:34:32;15.30;99.90
5086;DHT22;4715;51.660;7.082;2023-05-07T01:36:56;15.40;99.90
5086;DHT22;4715;51.660;7.082;2023-05-07T01:39:21;15.30;99.90
5086;DHT22;4715;51.660;7.082;2023-05-07T01:41:43;15.40;99.90
5086;DHT22;4715;51.660;7.082;2023-05-07T01:44:05;15.30;99.90
5086;DHT22;4715;51.660;7.082;2023-05-07T01:46:27;15.30;99.90
5086;DHT22;4715;51.660;7.082;2023-05-07T01:48:50;15.30;99.90
5086;DHT22;4715;51.660;7.082;2023-05-07T01:51:12;15.30;99.90
5086;DHT22;4715;51.660;7.082;2023-05-07T01:53:35;15.30;99.90
5086;DHT22;4715;51.660;7.082;2023-05-07T01:55:59;15.30;99.90
5086;DHT22;4715;51.660;7.082;2023-05-07T01:58:21;15.30;99.90
5086;DHT22;4715;51.660;7.082;2023-05-07T02:00:43;15.30;99.90
5086;DHT22;4715;51.660;7.082;2023-05-07T02:03:04;15.30;99.90
5086;DHT22;4715;51.660;7.082;2023-05-07T02:05:26;15.30;99.90
5086;DHT22;4715;51.660;7.082;2023-05-07T02:07:48;15.20;99.90
5086;DHT22;4715;51.660;7.082;2023-05-07T02:10:10;15.20;99.90
5086;DHT22;4715;51.660;7.082;2023-05-07T02:12:33;15.20;99.90
5086;DHT22;4715;51.660;7.082;2023-05-07T02:14:55;15.20;99.90
5086;DHT22;4715;51.660;7.082;2023-05-07T02:17:16;15.20;99.90
5086;DHT22;4715;51.660;7.082;2023-05-07T02:19:38;15.20;99.90
5086;DHT22;4715;51.660;7.082;2023-05-07T02:22:00;15.20;99.90
5086;DHT22;4715;51.660;7.082;2023-05-07T02:24:22;15.20;99.90
5086;DHT22;4715;51.660;7.082;2023-05-07T02:26:44;15.20;99.90
5086;DHT22;4715;51.660;7.082;2023-05-07T02:29:07;15.20;99.90
5086;DHT22;4715;51.660;7.082;2023-05-07T02:31:29;15.20;99.90
5086;DHT22;4715;51.660;7.082;2023-05-07T02:33:50;15.20;99.90
5086;DHT22;4715;51.660;7.082;2023-05-07T02:36:12;15.30;99.90
5086;DHT22;4715;51.660;7.082;2023-05-07T02:38:34;15.30;99.90
5086;DHT22;4715;51.660;7.082;2023-05-07T02:40:56;15.30;99.90
5086;DHT22;4715;51.660;7.082;2023-05-07T02:43:17;15.30;99.90
5086;DHT22;4715;51.660;7.082;2023-05-07T02:45:40;15.30;99.90
5086;DHT22;4715;51.660;7.082;2023-05-07T02:48:04;15.20;99.90
5086;DHT22;4715;51.660;7.082;2023-05-07T02:50:26;15.20;99.90
5086;DHT22;4715;51.660;7.082;2023-05-07T02:52:48;15.20;99.90
5086;DHT22;4715;51.660;7.082;2023-05-07T02:55:10;15.20;99.90
5086;DHT22;4715;51.660;7.082;2023-05-07T02:57:32;15.20;99.90
5086;DHT22;4715;51.660;7.082;2023-05-07T02:59:54;15.20;99.90
5086;DHT22;4715;51.660;7.082;2023-05-07T03:02:17;15.20;99.90
5086;DHT22;4715;51.660;7.082;2023-05-07T03:04:39;15.20;99.90
5086;DHT22;4715;51.660;7.082;2023-05-07T03:07:01;15.20;99.90
5086;DHT22;4715;51.660;7.082;2023-05-07T03:09:23;15.20;99.90
5086;DHT22;4715;51.660;7.082;2023-05-07T03:11:45;15.20;99.90
5086;DHT22;4715;51.660;7.082;2023-05-07T03:14:06;15.20;99.90
5086;DHT22;4715;51.660;7.082;2023-05-07T03:16:28;15.10;99.90
5086;DHT22;4715;51.660;7.082;2023-05-07T03:18:51;15.10;99.90
5086;DHT22;4715;51.660;7.082;2023-05-07T03:21:13;15.10;99.90
5086;DHT22;4715;51.660;7.082;2023-05-07T03:23:35;15.10;99.90
5086;DHT22;4715;51.660;7.082;2023-05-07T03:25:57;15.10;99.90
5086;DHT22;4715;51.660;7.082;2023-05-07T03:28:18;15.10;99.90
5086;DHT22;4715;51.660;7.082;2023-05-07T03:30:40;15.10;99.90
5086;DHT22;4715;51.660;7.082;2023-05-07T03:33:02;15.10;99.90
5086;DHT22;4715;51.660;7.082;2023-05-07T03:35:26;15.10;99.90
5086;DHT22;4715;51.660;7.082;2023-05-07T03:37:48;15.10;99.90
5086;DHT22;4715;51.660;7.082;2023-05-07T03:40:10;15.00;99.90
5086;DHT22;4715;51.660;7.082;2023-05-07T03:42:32;15.00;99.90
5086;DHT22;4715;51.660;7.082;2023-05-07T03:44:54;15.00;99.90
5086;DHT22;4715;51.660;7.082;2023-05-07T03:47:16;15.00;99.90
5086;DHT22;4715;51.660;7.082;2023-05-07T03:49:38;15.00;99.90
5086;DHT22;4715;51.660;7.082;2023-05-07T03:52:01;15.10;99.90
5086;DHT22;4715;51.660;7.082;2023-05-07T03:54:23;15.00;99.90
5086;DHT22;4715;51.660;7.082;2023-05-07T03:56:44;15.00;99.90
5086;DHT22;4715;51.660;7.082;2023-05-07T03:59:06;15.00;99.90
5086;DHT22;4715;51.660;7.082;2023-05-07T04:01:28;15.00;99.90
5086;DHT22;4715;51.660;7.082;2023-05-07T04:03:50;15.00;99.90
5086;DHT22;4715;51.660;7.082;2023-05-07T04:06:12;15.00;99.90
5086;DHT22;4715;51.660;7.082;2023-05-07T04:08:35;15.00;99.90
5086;DHT22;4715;51.660;7.082;2023-05-07T04:10:57;15.00;99.90
5086;DHT22;4715;51.660;7.082;2023-05-07T04:13:19;15.00;99.90
5086;DHT22;4715;51.660;7.082;2023-05-07T04:15:41;14.90;99.90
5086;DHT22;4715;51.660;7.082;2023-05-07T04:18:02;14.90;99.90
5086;DHT22;4715;51.660;7.082;2023-05-07T04:20:24;14.90;99.90
5086;DHT22;4715;51.660;7.082;2023-05-07T04:22:46;14.90;99.90
5086;DHT22;4715;51.660;7.082;2023-05-07T04:25:10;14.90;99.90
5086;DHT22;4715;51.660;7.082;2023-05-07T04:27:31;15.00;99.90
5086;DHT22;4715;51.660;7.082;2023-05-07T04:29:53;15.00;99.90
5086;DHT22;4715;51.660;7.082;2023-05-07T04:32:16;15.00;99.90
5086;DHT22;4715;51.660;7.082;2023-05-07T04:34:38;15.00;99.90
5086;DHT22;4715;51.660;7.082;2023-05-07T04:37:00;15.00;99.90
5086;DHT22;4715;51.660;7.082;2023-05-07T04:39:22;15.00;99.90
5086;DHT22;4715;51.660;7.082;2023-05-07T04:41:45;15.00;99.90
5086;DHT22;4715;51.660;7.082;2023-05-07T04:44:06;15.00;99.90
5086;DHT22;4715;51.660;7.082;2023-05-07T04:46:29;15.00;99.90
5086;DHT22;4715;51.660;7.082;2023-05-07T04:48:51;15.00;99.90
5086;DHT22;4715;51.660;7.082;2023-05-07T04:51:13;15.10;99.90
5086;DHT22;4715;51.660;7.082;2023-05-07T04:53:35;15.10;99.90
5086;DHT22;4715;51.660;7.082;2023-05-07T04:55:57;15.10;99.90
5086;DHT22;4715;51.660;7.082;2023-05-07T04:58:20;15.10;99.90
5086;DHT22;4715;51.660;7.082;2023-05-07T05:00:42;15.10;99.90
5086;DHT22;4715;51.660;7.082;2023-05-07T05:03:04;15.10;99.90
5086;DHT22;4715;51.660;7.082;2023-05-07T05:05:25;15.10;99.90
5086;DHT22;4715;51.660;7.082;2023-05-07T05:07:47;15.10;99.90
5086;DHT22;4715;51.660;7.082;2023-05-07T05:10:09;15.10;99.90
5086;DHT22;4715;51.660;7.082;2023-05-07T05:12:31;15.20;99.90
5086;DHT22;4715;51.660;7.082;2023-05-07T05:14:54;15.20;99.90
5086;DHT22;4715;51.660;7.082;2023-05-07T05:17:16;15.10;99.90
5086;DHT22;4715;51.660;7.082;2023-05-07T05:19:38;15.10;99.90
5086;DHT22;4715;51.660;7.082;2023-05-07T05:21:59;15.10;99.90
5086;DHT22;4715;51.660;7.082;2023-05-07T05:24:24;15.10;99.90
5086;DHT22;4715;51.660;7.082;2023-05-07T05:26:46;15.10;99.90
5086;DHT22;4715;51.660;7.082;2023-05-07T05:29:07;15.10;99.90
5086;DHT22;4715;51.660;7.082;2023-05-07T05:31:30;15.10;99.90
5086;DHT22;4715;51.660;7.082;2023-05-07T05:33:54;15.10;99.90
5086;DHT22;4715;51.660;7.082;2023-05-07T05:36:16;15.20;99.90
5086;DHT22;4715;51.660;7.082;2023-05-07T05:38:38;15.20;99.90
5086;DHT22;4715;51.660;7.082;2023-05-07T05:41:06;15.30;99.90
5086;DHT22;4715;51.660;7.082;2023-05-07T05:43:27;15.30;99.90
5086;DHT22;4715;51.660;7.082;2023-05-07T05:45:49;15.30;99.90
5086;DHT22;4715;51.660;7.082;2023-05-07T05:48:12;15.40;99.90
5086;DHT22;4715;51.660;7.082;2023-05-07T05:50:34;15.40;99.90
5086;DHT22;4715;51.660;7.082;2023-05-07T05:52:57;15.50;99.90
5086;DHT22;4715;51.660;7.082;2023-05-07T05:55:19;15.60;99.90
5086;DHT22;4715;51.660;7.082;2023-05-07T05:57:42;15.70;99.90
5086;DHT22;4715;51.660;7.082;2023-05-07T06:00:05;15.70;99.90
5086;DHT22;4715;51.660;7.082;2023-05-07T06:02:27;15.80;99.90
5086;DHT22;4715;51.660;7.082;2023-05-07T06:04:50;15.80;99.90
5086;DHT22;4715;51.660;7.082;2023-05-07T06:07:11;15.90;99.90
5086;DHT22;4715;51.660;7.082;2023-05-07T06:09:33;15.90;99.90
5086;DHT22;4715;51.660;7.082;2023-05-07T06:11:55;16.00;99.90
5086;DHT22;4715;51.660;7.082;2023-05-07T06:14:17;16.00;99.90
5086;DHT22;4715;51.660;7.082;2023-05-07T06:16:39;16.10;99.90
5086;DHT22;4715;51.660;7.082;2023-05-07T06:19:01;16.10;99.90
5086;DHT22;4715;51.660;7.082;2023-05-07T06:21:24;16.20;99.90
5086;DHT22;4715;51.660;7.082;2023-05-07T06:23:46;16.30;99.90
5086;DHT22;4715;51.660;7.082;2023-05-07T06:26:08;16.30;99.90
5086;DHT22;4715;51.660;7.082;2023-05-07T06:28:29;16.30;99.90
5086;DHT22;4715;51.660;7.082;2023-05-07T06:31:06;16.40;99.90
5086;DHT22;4715;51.660;7.082;2023-05-07T06:33:31;16.40;99.90
5086;DHT22;4715;51.660;7.082;2023-05-07T06:35:53;16.40;99.90
5086;DHT22;4715;51.660;7.082;2023-05-07T06:38:17;16.40;99.90
5086;DHT22;4715;51.660;7.082;2023-05-07T06:40:38;16.50;99.90
5086;DHT22;4715;51.660;7.082;2023-05-07T06:43:00;16.50;99.90
5086;DHT22;4715;51.660;7.082;2023-05-07T06:45:22;16.60;99.90
5086;DHT22;4715;51.660;7.082;2023-05-07T06:47:44;16.60;99.90
5086;DHT22;4715;51.660;7.082;2023-05-07T06:50:07;16.60;99.90
5086;DHT22;4715;51.660;7.082;2023-05-07T06:52:30;16.60;99.90
5086;DHT22;4715;51.660;7.082;2023-05-07T06:54:53;16.60;99.90
5086;DHT22;4715;51.660;7.082;2023-05-07T06:57:15;16.60;99.90
5086;DHT22;4715;51.660;7.082;2023-05-07T06:59:37;16.60;99.90
5086;DHT22;4715;51.660;7.082;2023-05-07T07:01:58;16.60;99.90
5086;DHT22;4715;51.660;7.082;2023-05-07T07:04:20;16.60;99.90
5086;DHT22;4715;51.660;7.082;2023-05-07T07:06:43;16.60;99.90
5086;DHT22;4715;51.660;7.082;2023-05-07T07:09:05;16.60;99.90
5086;DHT22;4715;51.660;7.082;2023-05-07T07:11:28;16.60;99.90
5086;DHT22;4715;51.660;7.082;2023-05-07T07:13:51;16.60;99.90
5086;DHT22;4715;51.660;7.082;2023-05-07T07:16:14;16.60;99.90
5086;DHT22;4715;51.660;7.082;2023-05-07T07:18:36;16.70;99.90
5086;DHT22;4715;51.660;7.082;2023-05-07T07:20:58;16.70;99.90
5086;DHT22;4715;51.660;7.082;2023-05-07T07:23:20;16.70;99.90
5086;DHT22;4715;51.660;7.082;2023-05-07T07:25:42;16.80;99.90
5086;DHT22;4715;51.660;7.082;2023-05-07T07:28:05;16.80;99.90
5086;DHT22;4715;51.660;7.082;2023-05-07T07:30:27;16.90;99.90
5086;DHT22;4715;51.660;7.082;2023-05-07T07:32:49;16.90;99.90
5086;DHT22;4715;51.660;7.082;2023-05-07T07:35:12;16.90;99.90
5086;DHT22;4715;51.660;7.082;2023-05-07T07:37:33;16.90;99.90
5086;DHT22;4715;51.660;7.082;2023-05-07T07:39:55;17.00;99.90
5086;DHT22;4715;51.660;7.082;2023-05-07T07:42:17;17.10;99.90
5086;DHT22;4715;51.660;7.082;2023-05-07T07:44:41;17.10;99.90
5086;DHT22;4715;51.660;7.082;2023-05-07T07:47:03;17.20;99.90
5086;DHT22;4715;51.660;7.082;2023-05-07T07:49:25;17.20;99.90
5086;DHT22;4715;51.660;7.082;2023-05-07T07:51:46;17.20;99.90
5086;DHT22;4715;51.660;7.082;2023-05-07T07:54:08;17.30;99.90
5086;DHT22;4715;51.660;7.082;2023-05-07T07:56:31;17.40;99.90
5086;DHT22;4715;51.660;7.082;2023-05-07T07:58:53;17.60;99.90
5086;DHT22;4715;51.660;7.082;2023-05-07T08:01:16;17.70;99.90
5086;DHT22;4715;51.660;7.082;2023-05-07T08:03:38;17.90;99.90
5086;DHT22;4715;51.660;7.082;2023-05-07T08:06:00;18.00;99.90
5086;DHT22;4715;51.660;7.082;2023-05-07T08:08:22;18.10;99.90
5086;DHT22;4715;51.660;7.082;2023-05-07T08:10:44;18.20;99.90
5086;DHT22;4715;51.660;7.082;2023-05-07T08:13:07;18.20;99.90
5086;DHT22;4715;51.660;7.082;2023-05-07T08:15:30;18.20;99.90
5086;DHT22;4715;51.660;7.082;2023-05-07T08:17:53;18.20;99.90
5086;DHT22;4715;51.660;7.082;2023-05-07T08:20:18;18.20;99.90
5086;DHT22;4715;51.660;7.082;2023-05-07T08:22:40;18.10;99.90
5086;DHT22;4715;51.660;7.082;2023-05-07T08:25:02;18.10;99.90
5086;DHT22;4715;51.660;7.082;2023-05-07T08:27:24;18.10;99.90
5086;DHT22;4715;51.660;7.082;2023-05-07T08:29:46;18.20;99.90
5086;DHT22;4715;51.660;7.082;2023-05-07T08:32:09;18.30;99.90
5086;DHT22;4715;51.660;7.082;2023-05-07T08:34:33;18.30;99.90
5086;DHT22;4715;51.660;7.082;2023-05-07T08:36:55;18.40;99.90
5086;DHT22;4715;51.660;7.082;2023-05-07T08:39:17;18.60;99.90
5086;DHT22;4715;51.660;7.082;2023-05-07T08:41:38;18.60;99.90
5086;DHT22;4715;51.660;7.082;2023-05-07T08:44:02;18.60;99.90
5086;DHT22;4715;51.660;7.082;2023-05-07T08:46:25;18.70;99.90
5086;DHT22;4715;51.660;7.082;2023-05-07T08:48:49;18.80;99.90
5086;DHT22;4715;51.660;7.082;2023-05-07T08:51:15;18.80;99.90
5086;DHT22;4715;51.660;7.082;2023-05-07T08:53:40;18.90;99.90
5086;DHT22;4715;51.660;7.082;2023-05-07T08:56:02;18.90;99.90
5086;DHT22;4715;51.660;7.082;2023-05-07T08:58:25;18.90;99.90
5086;DHT22;4715;51.660;7.082;2023-05-07T09:00:47;18.90;99.90
5086;DHT22;4715;51.660;7.082;2023-05-07T09:03:09;18.90;99.90
5086;DHT22;4715;51.660;7.082;2023-05-07T09:05:32;19.00;99.90
5086;DHT22;4715;51.660;7.082;2023-05-07T09:07:59;19.10;99.90
5086;DHT22;4715;51.660;7.082;2023-05-07T09:10:21;19.20;99.90
5086;DHT22;4715;51.660;7.082;2023-05-07T09:12:43;19.20;99.90
5086;DHT22;4715;51.660;7.082;2023-05-07T09:15:06;19.30;99.90
5086;DHT22;4715;51.660;7.082;2023-05-07T09:17:28;19.30;99.90
5086;DHT22;4715;51.660;7.082;2023-05-07T09:19:50;19.30;99.90
5086;DHT22;4715;51.660;7.082;2023-05-07T09:22:13;19.40;99.90
5086;DHT22;4715;51.660;7.082;2023-05-07T09:24:37;19.40;99.90
5086;DHT22;4715;51.660;7.082;2023-05-07T09:26:59;19.50;99.90
5086;DHT22;4715;51.660;7.082;2023-05-07T09:29:21;19.50;99.90
5086;DHT22;4715;51.660;7.082;2023-05-07T09:31:43;19.50;99.90
5086;DHT22;4715;51.660;7.082;2023-05-07T09:34:05;19.60;99.90
5086;DHT22;4715;51.660;7.082;2023-05-07T09:36:27;19.70;99.90
5086;DHT22;4715;51.660;7.082;2023-05-07T09:38:48;19.80;99.90
5086;DHT22;4715;51.660;7.082;2023-05-07T09:41:14;20.00;99.90
5086;DHT22;4715;51.660;7.082;2023-05-07T09:43:37;20.20;99.90
5086;DHT22;4715;51.660;7.082;2023-05-07T09:45:59;20.30;99.90
5086;DHT22;4715;51.660;7.082;2023-05-07T09:48:22;20.40;99.90
5086;DHT22;4715;51.660;7.082;2023-05-07T09:50:49;20.40;99.90
5086;DHT22;4715;51.660;7.082;2023-05-07T09:53:11;20.40;99.90
5086;DHT22;4715;51.660;7.082;2023-05-07T09:55:34;20.50;99.90
5086;DHT22;4715;51.660;7.082;2023-05-07T09:57:58;20.50;99.90
5086;DHT22;4715;51.660;7.082;2023-05-07T10:00:23;20.60;99.90
5086;DHT22;4715;51.660;7.082;2023-05-07T10:02:46;20.70;99.90
5086;DHT22;4715;51.660;7.082;2023-05-07T10:05:09;20.80;99.90
5086;DHT22;4715;51.660;7.082;2023-05-07T10:07:31;21.00;99.90
5086;DHT22;4715;51.660;7.082;2023-05-07T10:09:54;21.10;99.90
5086;DHT22;4715;51.660;7.082;2023-05-07T10:12:16;21.20;99.90
5086;DHT22;4715;51.660;7.082;2023-05-07T10:14:41;21.30;99.90
5086;DHT22;4715;51.660;7.082;2023-05-07T10:17:04;21.40;99.90
5086;DHT22;4715;51.660;7.082;2023-05-07T10:19:28;21.60;99.90
5086;DHT22;4715;51.660;7.082;2023-05-07T10:21:54;21.70;99.90
5086;DHT22;4715;51.660;7.082;2023-05-07T10:24:20;21.80;99.90
5086;DHT22;4715;51.660;7.082;2023-05-07T10:26:45;21.70;99.90
5086;DHT22;4715;51.660;7.082;2023-05-07T10:29:14;21.60;99.90
5086;DHT22;4715;51.660;7.082;2023-05-07T10:31:55;21.60;99.90
5086;DHT22;4715;51.660;7.082;2023-05-07T10:34:24;21.70;99.90
5086;DHT22;4715;51.660;7.082;2023-05-07T10:36:47;21.70;99.90
5086;DHT22;4715;51.660;7.082;2023-05-07T10:39:10;21.90;99.90
5086;DHT22;4715;51.660;7.082;2023-05-07T10:41:32;22.00;99.90
5086;DHT22;4715;51.660;7.082;2023-05-07T10:43:54;22.10;99.90
5086;DHT22;4715;51.660;7.082;2023-05-07T10:46:17;22.10;99.90
5086;DHT22;4715;51.660;7.082;2023-05-07T10:49:08;22.20;99.90
5086;DHT22;4715;51.660;7.082;2023-05-07T10:51:32;22.40;99.90
5086;DHT22;4715;51.660;7.082;2023-05-07T10:54:18;22.50;99.90
5086;DHT22;4715;51.660;7.082;2023-05-07T10:56:41;22.60;99.90
5086;DHT22;4715;51.660;7.082;2023-05-07T10:59:34;22.70;99.90
5086;DHT22;4715;51.660;7.082;2023-05-07T11:02:02;22.80;99.90
5086;DHT22;4715;51.660;7.082;2023-05-07T11:04:27;22.90;99.90
5086;DHT22;4715;51.660;7.082;2023-05-07T11:07:21;23.00;99.90
5086;DHT22;4715;51.660;7.082;2023-05-07T11:09:55;23.10;99.90
5086;DHT22;4715;51.660;7.082;2023-05-07T11:12:48;23.30;99.90
5086;DHT22;4715;51.660;7.082;2023-05-07T11:15:11;23.40;99.90
5086;DHT22;4715;51.660;7.082;2023-05-07T11:17:33;23.30;99.90
5086;DHT22;4715;51.660;7.082;2023-05-07T11:19:57;23.40;99.90
5086;DHT22;4715;51.660;7.082;2023-05-07T11:22:37;23.50;99.90
5086;DHT22;4715;51.660;7.082;2023-05-07T11:25:03;23.60;99.90
5086;DHT22;4715;51.660;7.082;2023-05-07T11:27:26;23.60;99.90
5086;DHT22;4715;51.660;7.082;2023-05-07T11:29:51;23.70;99.90
5086;DHT22;4715;51.660;7.082;2023-05-07T11:32:13;23.70;99.90
5086;DHT22;4715;51.660;7.082;2023-05-07T11:34:35;23.70;99.90
5086;DHT22;4715;51.660;7.082;2023-05-07T11:36:59;23.80;99.90
5086;DHT22;4715;51.660;7.082;2023-05-07T11:39:29;23.80;99.90
5086;DHT22;4715;51.660;7.082;2023-05-07T11:41:52;23.80;99.90
5086;DHT22;4715;51.660;7.082;2023-05-07T11:44:13;23.70;99.90
5086;DHT22;4715;51.660;7.082;2023-05-07T11:46:35;23.80;99.90
5086;DHT22;4715;51.660;7.082;2023-05-07T11:48:57;23.60;99.90
5086;DHT22;4715;51.660;7.082;2023-05-07T11:51:20;23.60;99.90
5086;DHT22;4715;51.660;7.082;2023-05-07T11:53:44;23.60;99.90
5086;DHT22;4715;51.660;7.082;2023-05-07T11:56:07;23.60;99.90
5086;DHT22;4715;51.660;7.082;2023-05-07T11:58:29;23.60;99.90
5086;DHT22;4715;51.660;7.082;2023-05-07T12:00:51;23.60;99.90
5086;DHT22;4715;51.660;7.082;2023-05-07T12:03:13;23.60;99.90
5086;DHT22;4715;51.660;7.082;2023-05-07T12:05:35;23.60;99.90
5086;DHT22;4715;51.660;7.082;2023-05-07T12:07:57;23.60;99.90
5086;DHT22;4715;51.660;7.082;2023-05-07T12:10:21;23.60;99.90
5086;DHT22;4715;51.660;7.082;2023-05-07T12:12:45;23.70;99.90
5086;DHT22;4715;51.660;7.082;2023-05-07T12:15:08;23.70;99.90
5086;DHT22;4715;51.660;7.082;2023-05-07T12:17:30;23.70;99.90
5086;DHT22;4715;51.660;7.082;2023-05-07T12:19:52;23.80;99.90
5086;DHT22;4715;51.660;7.082;2023-05-07T12:22:14;23.90;99.90
5086;DHT22;4715;51.660;7.082;2023-05-07T12:24:46;24.10;99.90
5086;DHT22;4715;51.660;7.082;2023-05-07T12:27:10;24.20;99.90
5086;DHT22;4715;51.660;7.082;2023-05-07T12:29:32;24.20;99.90
5086;DHT22;4715;51.660;7.082;2023-05-07T12:31:54;24.30;99.90
5086;DHT22;4715;51.660;7.082;2023-05-07T12:34:16;24.20;99.90
5086;DHT22;4715;51.660;7.082;2023-05-07T12:36:38;24.20;99.90
5086;DHT22;4715;51.660;7.082;2023-05-07T12:39:01;24.00;99.90
5086;DHT22;4715;51.660;7.082;2023-05-07T12:41:22;23.90;99.90
5086;DHT22;4715;51.660;7.082;2023-05-07T12:43:48;23.80;99.90
5086;DHT22;4715;51.660;7.082;2023-05-07T12:46:11;23.70;99.90
5086;DHT22;4715;51.660;7.082;2023-05-07T12:48:36;23.70;99.90
5086;DHT22;4715;51.660;7.082;2023-05-07T12:50:59;23.70;99.90
5086;DHT22;4715;51.660;7.082;2023-05-07T12:53:23;23.60;99.90
5086;DHT22;4715;51.660;7.082;2023-05-07T12:55:47;23.50;99.90
5086;DHT22;4715;51.660;7.082;2023-05-07T12:58:14;23.50;99.90
5086;DHT22;4715;51.660;7.082;2023-05-07T13:00:38;23.40;99.90
5086;DHT22;4715;51.660;7.082;2023-05-07T13:03:00;23.30;99.90
5086;DHT22;4715;51.660;7.082;2023-05-07T13:05:22;23.20;99.90
5086;DHT22;4715;51.660;7.082;2023-05-07T13:07:52;23.20;99.90
5086;DHT22;4715;51.660;7.082;2023-05-07T13:10:14;23.20;99.90
5086;DHT22;4715;51.660;7.082;2023-05-07T13:12:36;23.00;99.90
5086;DHT22;4715;51.660;7.082;2023-05-07T13:14:58;22.90;99.90
5086;DHT22;4715;51.660;7.082;2023-05-07T13:17:21;22.80;99.90
5086;DHT22;4715;51.660;7.082;2023-05-07T13:19:43;22.80;99.90
5086;DHT22;4715;51.660;7.082;2023-05-07T13:22:05;22.80;99.90
5086;DHT22;4715;51.660;7.082;2023-05-07T13:24:26;22.70;99.90
5086;DHT22;4715;51.660;7.082;2023-05-07T13:26:48;22.70;99.90
5086;DHT22;4715;51.660;7.082;2023-05-07T13:29:10;22.70;99.90
5086;DHT22;4715;51.660;7.082;2023-05-07T13:31:32;22.60;99.90
5086;DHT22;4715;51.660;7.082;2023-05-07T13:33:55;22.60;99.90
5086;DHT22;4715;51.660;7.082;2023-05-07T13:36:17;22.60;99.90
5086;DHT22;4715;51.660;7.082;2023-05-07T13:38:39;22.60;99.90
5086;DHT22;4715;51.660;7.082;2023-05-07T13:41:01;22.60;99.90
5086;DHT22;4715;51.660;7.082;2023-05-07T13:43:24;22.50;99.90
5086;DHT22;4715;51.660;7.082;2023-05-07T13:45:46;22.40;99.90
5086;DHT22;4715;51.660;7.082;2023-05-07T13:48:08;22.30;99.90
5086;DHT22;4715;51.660;7.082;2023-05-07T13:50:31;22.20;99.90
5086;DHT22;4715;51.660;7.082;2023-05-07T13:52:53;22.10;99.90
5086;DHT22;4715;51.660;7.082;2023-05-07T13:55:16;22.00;99.90
5086;DHT22;4715;51.660;7.082;2023-05-07T13:57:38;21.90;99.90
5086;DHT22;4715;51.660;7.082;2023-05-07T14:00:00;21.90;99.90
5086;DHT22;4715;51.660;7.082;2023-05-07T14:02:21;21.80;99.90
5086;DHT22;4715;51.660;7.082;2023-05-07T14:04:43;21.80;99.90
5086;DHT22;4715;51.660;7.082;2023-05-07T14:07:06;21.70;99.90
5086;DHT22;4715;51.660;7.082;2023-05-07T14:09:28;21.70;99.90
5086;DHT22;4715;51.660;7.082;2023-05-07T14:11:51;21.60;99.90
5086;DHT22;4715;51.660;7.082;2023-05-07T14:14:12;21.50;99.90
5086;DHT22;4715;51.660;7.082;2023-05-07T14:16:34;21.50;99.90
5086;DHT22;4715;51.660;7.082;2023-05-07T14:18:56;21.40;99.90
5086;DHT22;4715;51.660;7.082;2023-05-07T14:21:18;21.40;99.90
5086;DHT22;4715;51.660;7.082;2023-05-07T14:23:49;21.40;99.90
5086;DHT22;4715;51.660;7.082;2023-05-07T14:26:12;21.30;99.90
5086;DHT22;4715;51.660;7.082;2023-05-07T14:28:33;21.30;99.90
5086;DHT22;4715;51.660;7.082;2023-05-07T14:30:56;21.20;99.90
5086;DHT22;4715;51.660;7.082;2023-05-07T14:33:17;21.10;99.90
5086;DHT22;4715;51.660;7.082;2023-05-07T14:35:39;21.00;99.90
5086;DHT22;4715;51.660;7.082;2023-05-07T14:38:01;21.00;99.90
5086;DHT22;4715;51.660;7.082;2023-05-07T14:40:25;21.00;99.90
5086;DHT22;4715;51.660;7.082;2023-05-07T14:42:46;21.00;99.90
5086;DHT22;4715;51.660;7.082;2023-05-07T14:45:09;21.00;99.90
5086;DHT22;4715;51.660;7.082;2023-05-07T14:47:32;20.90;99.90
5086;DHT22;4715;51.660;7.082;2023-05-07T14:49:54;20.90;99.90
5086;DHT22;4715;51.660;7.082;2023-05-07T14:52:17;20.90;99.90
5086;DHT22;4715;51.660;7.082;2023-05-07T14:54:41;20.90;99.90
5086;DHT22;4715;51.660;7.082;2023-05-07T14:57:04;20.80;99.90
5086;DHT22;4715;51.660;7.082;2023-05-07T14:59:27;20.80;99.90
5086;DHT22;4715;51.660;7.082;2023-05-07T15:01:49;20.70;99.90
5086;DHT22;4715;51.660;7.082;2023-05-07T15:04:10;20.70;99.90
5086;DHT22;4715;51.660;7.082;2023-05-07T15:06:32;20.70;99.90
5086;DHT22;4715;51.660;7.082;2023-05-07T15:08:54;20.60;99.90
5086;DHT22;4715;51.660;7.082;2023-05-07T15:11:19;20.60;99.90
5086;DHT22;4715;51.660;7.082;2023-05-07T15:13:42;20.60;99.90
5086;DHT22;4715;51.660;7.082;2023-05-07T15:16:04;20.60;99.90
5086;DHT22;4715;51.660;7.082;2023-05-07T15:18:27;20.60;99.90
5086;DHT22;4715;51.660;7.082;2023-05-07T15:20:49;20.60;99.90
5086;DHT22;4715;51.660;7.082;2023-05-07T15:23:11;20.60;99.90
5086;DHT22;4715;51.660;7.082;2023-05-07T15:25:34;20.60;99.90
5086;DHT22;4715;51.660;7.082;2023-05-07T15:27:56;20.70;99.90
5086;DHT22;4715;51.660;7.082;2023-05-07T15:30:19;20.70;99.90
5086;DHT22;4715;51.660;7.082;2023-05-07T15:32:41;20.70;99.90
5086;DHT22;4715;51.660;7.082;2023-05-07T15:35:04;20.80;99.90